MET: Información y Pronóstico Aeronáutico

///////////////////////////////////////////////////////////////////////////////////////////////////////////////////////////////////////////////////////////////////////////////////////////////////////////////////////////////////////////////

Member for

1 año 4 meses
Enviado por meteorologia el Jue, 23/11/2017 - 11:39
19-11

19 DE NOVIEMBRE 2019

INFORMACION METEOROLOGICA AERONAUTICA (METAR) 12:00 UTC

Aeropuerto AEROPARQUE J. NEWBERY

19 - 12:00               METAR SABE 191200Z 12011KT 9999 FEW013 BKN200 24/21 Q1017 NOSIG =

Aeropuerto BAHIA BLANCA

19 - 12:00               METAR SAZB 191200Z 03606KT CAVOK 26/08 Q1016 =

Aeropuerto BARILOCHE

19 - 12:00               METAR SAZS 191200Z 00000KT CAVOK 10/05 Q1013 =

Aeropuerto CATAMARCA

19 - 12:00               METAR SANC 191200Z 02021G30KT 9999 NSC 30/12 Q1013 =

Aeropuerto CHAPELCO

19 - 12:00               METAR SAZY 191200Z 27006KT 9999 SCT100 BKN200 10/05 Q1013 =

Aeropuerto COMODORO RIVADAVIA

19 - 12:00               METAR SAVC 191200Z 34009KT 280V020 CAVOK 19/05 Q1003 =

Aeropuerto CORDOBA

19 - 12:00               METAR SACO 191200Z 20010KT CAVOK 22/16 Q1020 NOSIG =

Aeropuerto CORRIENTES

19 - 12:00               METAR SARC 191200Z 12007KT CAVOK 29/21 Q1013 =

Aeropuerto EL CALAFATE

19 - 12:00               METAR SAWC 191200Z 25005KT 9999 VCSH SCT015 BKN060 11/06 Q0990 =

Aeropuerto EL PALOMAR

19 - 12:00               METAR SADP 191200Z 11008KT CAVOK 24/19 Q1017 =

Aeropuerto ESQUEL

19 - 12:00               METAR SAVE 191200Z 14002KT 9999 FEW035 SCT070 13/05 Q1007 =

Aeropuerto EZEIZA

19 - 12:00               METAR SAEZ 191200Z 11007KT CAVOK 24/20 Q1017 NOSIG =

Aeropuerto FORMOSA

19 - 12:00               METAR SARF 191200Z 05007KT CAVOK 30/21 Q1012 =

Aeropuerto IGUAZU/CATARATAS

19 - 12:00               METAR SARI 191200Z 07006KT 9999 FEW030 BKN200 27/17 Q1016 =

Aeropuerto JUJUY

19 - 12:00               METAR SASJ 191200Z 14002KT 9999 FEW020 28/14 Q1018 =

Aeropuerto LA RIOJA

19 - 12:00               METAR SANL 191200Z 20012KT CAVOK 28/12 Q1015 =

Aeropuerto MALARGUE

19 - 12:00               METAR SAMM 191200Z 00000KT CAVOK 16/04 Q1021 =

Aeropuerto MAR DEL PLATA

19 - 12:00               METAR SAZM 191200Z 11006KT 090V150 CAVOK 20/07 Q1018 =

Aeropuerto MENDOZA

19 - 12:00               METAR SAME 191200Z 18004KT CAVOK 24/13 Q1016 =

Aeropuerto MORON

19 - 12:00               METAR SADM 191200Z 05005KT CAVOK 25/15 Q1017 =

Aeropuerto NEUQUEN

19 - 12:00               METAR SAZN 191200Z 09006KT CAVOK 20/02 Q1012 =

Aeropuerto PARANA

19 - 12:00               METAR SAAP 191200Z 14004KT CAVOK 22/18 Q1017 =

Aeropuerto POSADAS

19 - 12:00               METAR SARP 191200Z 05005KT 9999 FEW035 BKN200 29/23 Q1014 =

Aeropuerto PUERTO MADRYN

19 - 12:00               METAR SAVY 191200Z 32008KT CAVOK 19/02 Q1009 =

Aeropuerto RECONQUISTA

19 - 12:00               METAR SATR 191200Z 09007KT CAVOK 27/18 Q1014 =

Aeropuerto RESISTENCIA

19 - 12:00               METAR SARE 191200Z 03006KT CAVOK 29/20 Q1012 =

Aeropuerto RIO CUARTO

19 - 12:00               METAR SAOC 191200Z 34005KT CAVOK 18/16 Q1019 RERA RMK ESTIMATED WIND =

Aeropuerto RIO GALLEGOS

19 - 12:00               METAR SAWG 191200Z 29008KT 9999 FEW035 SCT100 13/04 Q0989 =

Aeropuerto RIO GRANDE

19 - 12:00               METAR SAWE 191200Z 16003KT 9999 SCT018 08/05 Q0989 =

Aeropuerto ROSARIO

19 - 12:00               METAR SAAR 191200Z 09003KT 9000 SCT040 BKN100 OVC200 21/19 Q1016 =

Aeropuerto SALTA

19 - 12:00               METAR SASA 191200Z 36004KT 9999 FEW020 25/13 Q1019 =

Aeropuerto SAN FERNANDO

19 - 12:00               METAR SADF 191200Z 09008KT 9999 FEW025 BKN200 24/18 Q1017 =

Aeropuerto SAN JUAN

19 - 12:00               METAR SANU 191200Z 18016KT CAVOK 25/11 Q1016 =

Aeropuerto SAN LUIS

19 - 12:00               METAR SAOU 191200Z 36008KT 9999 BKN040 25/15 Q1016 =

Aeropuerto SAN RAFAEL

19 - 12:00               METAR SAMR 191200Z 14003KT CAVOK 23/12 Q1017 =

Aeropuerto SANTA ROSA

19 - 12:00               METAR SAZR 191200Z 36013KT CAVOK 23/12 Q1016 =

Aeropuerto SANTIAGO DEL ESTERO

19 - 12:00               METAR SANE 191200Z 14005KT CAVOK 27/15 Q1015 =

Aeropuerto SAUCE VIEJO

19 - 12:00               METAR SAAV 191200Z 23005KT CAVOK 22/20 Q1017 =

Aeropuerto TANDIL

19 - 12:00               METAR SAZT 191200Z 07009KT CAVOK 21/04 Q1019 =

Aeropuerto TERMAS DE RIO HONDO

19 - 12:00               METAR SANR 191200Z 23010KT CAVOK 27/18 Q1014 =

Aeropuerto TRELEW

19 - 12:00               METAR SAVT 191200Z 34010KT CAVOK 19/04 Q1009 =

Aeropuerto TUCUMAN

19 - 12:00               METAR SANT 191200Z 36004KT 7000 NSC 26/20 Q1015 =

Aeropuerto USHUAIA

19 - 12:00               METAR SAWH 191200Z 11005KT 9999 SCT040 OVC060 08/04 Q0989 =

Aeropuerto VIEDMA

19 - 12:00               METAR SAVV 191200Z 34014KT CAVOK 22/06 Q1013 =

Aeropuerto VILLA REYNOLDS

19 - 12:00               METAR SAOR 191200Z 32024KT 9999 SCT030 FEW040CB 19/16 Q1016 =

 PRONOSTICO DE AERODROMO (TAF) 11:00 UTC

Estación AEROPARQUE J. NEWBERY

19 - 11:00               TAF SABE 191100Z 1912/2012 13010KT CAVOK TX29/1919Z TN22/2009Z BECMG 1915/1918 09010KT 9999 SCT030 BECMG 2003/2006 04010KT CAVOK =

Estación BAHIA BLANCA

19 - 11:00               TAF SAZB 191100Z 1912/2012 02010KT CAVOK TX33/1918Z TN16/2010Z BECMG 1916/1918 36015G25KT BECMG 2001/2003 27015G30KT 6000 TSRA SCT015 FEW045CB BKN050 BECMG 2006/2008 18015G25KT =

Estación BARILOCHE

19 - 11:00               TAF SAZS 191100Z 1912/2012 VRB03KT CAVOK TX16/1919Z TN01/2010Z BECMG 1913/1915 29020G35KT BECMG 1919/1922 30010KT 8000 -RA SCT030 BKN050 =

Estación CATAMARCA

19 - 11:00               TAF SANC 191100Z 1912/2012 02025G35KT CAVOK TX37/1919Z TN24/2010Z BECMG 1914/1916 FEW040TCU PROB40 2000/2003 34015KT 5000 TSRA BKN020 FEW040CB =

Estación CHAPELCO

19 - 11:00               TAF SAZY 191100Z 1912/2012 NIL =

Estación COMODORO RIVADAVIA

19 - 11:00               TAF SAVC 191100Z 1912/2012 34010G25KT CAVOK TX28/1919Z TN10/2010Z BECMG 1918/1920 29025G40KT 5000 DU FEW030 BKN100 TEMPO 1920/1924 29040G50KT BECMG 2000/2002 CAVOK =

Estación CORDOBA

19 - 11:00               TAF SACO 191100Z 1912/2012 18005KT 7000 VCTS SHRA SCT030 FEW040TCU TX33/1919Z TN17/2009Z BECMG 1915/1918 05015KT 9999 NSW SCT030 BECMG 1900/1902 02005KT =

Estación CORRIENTES

19 - 11:00               TAF SARC 191100Z 1912/2012 11005KT CAVOK TX37/1918Z TN21/2010Z PROB40 1915/1920 SCT030 =

Estación EL CALAFATE

19 - 11:00               TAF SAWC 191100Z 1912/2012 29010KT 9999 RA SCT030 BKN060 TX11/1919Z TN03/2009Z BECMG 1918/1920 27020G35KT BECMG 2003/2005 25010G30KT 9999 NSW BECMG 2009/2012 27010KT =

Estación EL PALOMAR

19 - 11:00               TAF SADP 191100Z 1912/2012 12005KT CAVOK TX31/1918Z TN21/2009Z BECMG 1913/1915 07010KT BECMG 1918/1820 9999 SCT035 BECMG 2001/2003 36010KT CAVOK =

Estación ESQUEL

19 - 11:00               TAF SAVE 191100Z 1912/2012 29015G25KT 9999 FEW030 SCT100 TX18/1919Z TN01/2006Z BECMG 1918/1920 31020G45KT 8000 RA SCT030 BKN050 BECMG 2000/2002 29015G25KT CAVOK =

Estación EZEIZA

19 - 11:00               TAF SAEZ 191100Z 1912/2012 12005KT 9999 OVC005 TX31/1918Z TN21/2009Z BECMG 1913/1915 07010KT CAVOK BECMG 1917/1819 9999 SCT035 BECMG 2001/2003 36010KT CAVOK =

Estación FORMOSA

19 - 11:00               TAF SARF 191100Z 1912/2012 11005KT 8000 NSC TX38/1918Z TN22/2010Z PROB40 1915/1920 SCT030 =

Estación IGUAZU/CATARATAS

19 - 11:00               TAF SARI 191100Z 1912/2012 05005KT CAVOK TX36/1918Z TN20/2010Z PROB40 1915/1920 SCT030 =

Estación JUJUY

19 - 11:00               TAF SASJ 191100Z 1912/2012 29005KT 9999 FEW025 TX36/1919Z TN21/2010Z BECMG 1913/1916 05015KT 9999 SCT030 BECMG 1922/2001 32005KT 9999 FEW040TCU PROB40 2001/2004 25005KT 5000 TSRA BKN020 FEW040CB

Estación LA RIOJA

19 - 11:00               TAF SANL 191100Z 1912/2012 23010KT CAVOK TX38/1920Z TN24/2010Z PROB40 2000/2003 34015KT 5000 TSRA BKN020 FEW040CB =

Estación MAR DEL PLATA

19 - 11:00               TAF SAZM 191100Z 1912/2012 18010KT CAVOK TX24/1918Z TN12/2010Z BECMG 1915/1918 05015KT BECMG 1922/2000 36015G25KT BECMG 2006/2009 34015KT 7000 TSRA FEW030CB BKN200 =

Estación MENDOZA

19 - 05:00               TAF SAME 190500Z 1906/2006 23005KT CAVOK TX33/1920Z TN19/1910Z BECMG 1913/1916 05010KT 9999 FEW040 =

Estación NEUQUEN

19 - 11:00               TAF SAZN 191100Z 1912/2012 VRB03KT CAVOK TX32/1919Z TN11/2010Z BECMG 1913/1915 33015KT BECMG 1918/1920 25020G30KT BECMG 2000/2002 27010KT =

Estación PARANA

19 - 11:00               TAF SAAP 191100Z 1912/2012 14005KT CAVOK TX34/1918Z TN18/2009Z BECMG 1919/1921 05005KT =

Estación POSADAS

19 - 11:00               TAF SARP 191100Z 1912/2012 11005KT 9999 SCT030 TX37/1918Z TN22/2010Z BECMG 1919/1920 05010KT CAVOK =

Estación RESISTENCIA

19 - 11:00               TAF SARE 191100Z 1912/2012 11005KT CAVOK TX37/1918Z TN21/2010Z PROB40 1915/1920 SCT030 =

Estación RIO CUARTO

19 - 11:00               TAF SAOC 191100Z 1912/2012 18010KT 7000 TSRA BKN015 FEW040CB TX34/1918Z TN18/2010Z BECMG 1915/1918 05020G35KT 9999 NSW SCT030 BECMG 2000/2003 02010KT =

Estación RIO GALLEGOS

19 - 11:00               TAF SAWG 191100Z 1912/2012 290015G25KT 9999 SCT030 BKN060 TX17/1919Z TN04/2005Z BECMG 1917/1920 25012G22KT 9000 RA SCT030 SCT060 BKN100 BECMG 2005/2007 25020G35KT CAVOK =

Estación RIO GRANDE

19 - 11:00               TAF SAWE 191100Z 1912/2012 02010KT 9999 RA FEW010 SCT020 BKN060 TX11/1919Z TN03/2006Z TEMPO 1912/1916 6000 BECMG 1917/1919 25010G20KT BECMG 1922/1924 23015KT BECMG 2006/2009 27020G35KT CAVOK =

Estación ROSARIO

19 - 11:00               TAF SAAR 191100Z 1912/2012 15005KT CAVOK TX31/1919Z TN22/2009Z BECMG 1914/1916 09005KT SCT040 BKN090 BECMG 1918/1921 05010KT 9999 SCT030 BKN050 BECMG 2001/2004 02010KT CAVOK =

Estación SALTA

19 - 11:00               TAF SASA 191100Z 1912/2012 VRB02KT 9999 FEW020 TX33/1919Z TN19/2010Z BECMG 1913/1916 05015KT 9999 SCT025 BECMG 1921/1923 32005KT 9999 FEW040TCU PROB40 2000/2003 23005KT 5000 TSRA BKN020 FEW040CB =

Estación SAN FERNANDO

19 - 11:00               TAF SADF 191100Z 1912/2012 09010KT CAVOK TX29/1918Z TN21/2009Z BECMG 2005/2007 02005KT =

Estación SAN JUAN

19 - 05:00               TAF SANU 190500Z 1906/2006 18005KT CAVOK TX35/1920Z TN17/1910Z BECMG 1917/1920 02010KT 9999 FEW040CB =

Estación SAN LUIS

19 - 05:00               TAF SAOU 190500Z 1906/2006 09015KT 9999 SCT030 FEW040CB TX34/1920Z TN19/1909Z BECMG 1906/1909 11015KT 5000 TSRA BKN025 FEW040CB BECMG 1912/1915 36020KT 9999 FEW030 =

Estación SAN RAFAEL

19 - 05:00               TAF SAMR 190500Z 1906/2006 VRB02KT CAVOK TX30/1920Z TN15/1910Z BECMG 1916/1919 36010KT 9999 FEW040 =

Estación SANTA ROSA

19 - 11:00               TAF SAZR 191100Z 1912/2012 02010KT CAVOK TX32/1918Z TN19/2010Z BECMG 1913/1915 03015G30KT BECMG 1922/2000 36010KT PROB30 TEMPO 2003/2006 7000 TSRA SCT020 FEW045CB BKN050 BECMG 2005/2007 18010KT =

Estación SANTIAGO DEL ESTERO

19 - 11:00               TAF SANE 191100Z 1912/2012 09005KT CAVOK TX40/1920Z TN24/2010Z BECMG 1914/1917 02015KT 9999 FEW030TCU =

Estación SAUCE VIEJO

19 - 11:00               TAF SAAV 191100Z 1912/2012 16005KT CAVOK TX34/1918Z TN18/2009Z BECMG 1913/1915 CAVOK BECMG 1919/1921 05005KT =

Estación TERMAS DE RIO HONDO

19 - 11:00               TAF SANR 191100Z 1912/2012 09005KT CAVOK TX40/1920Z TN24/2010Z BECMG 1914/1917 02015KT 9999 FEW030TCU =

Estación TRELEW

19 - 11:00               TAF SAVT 191100Z 1912/2012 32012KT CAVOK TX34/1919Z TN12/2010Z BECMG 1913/1915 32025G35KT SCT035 BKN100 BECMG 2000/2005 25025G50KT CAVOK BECMG 2009/2012 25012G22KT =

Estación TUCUMAN

19 - 11:00               TAF SANT 191100Z 1912/2012 VRB02KT 7000 NSC TX40/1919Z TN21/2010Z BECMG 1919/1922 02010KT 8000 FEW035TCU PROB40 2000/2003 34015KT 5000 TSRA BKN020 FEW040CB =

Estación USHUAIA

19 - 11:00               TAF SAWH 191100Z 1912/2012 36010KT 9999 FEW020 SCT040 SCT200 TX09/1919Z TN04/2008Z BECMG 1915/1918 VRB05KT 7000 -RA BKN020 OVC040 BECMG 2002/2005 25010G25KT 9999 NSW =

Estación VIEDMA

19 - 11:00               TAF SAVV 191100Z 1912/2012 36020G30KT CAVOK TX32/1919Z TN16/2010Z TEMPO 1918/1923 36020G40KT BECMG 2006/2008 20010G25KT =